Time;durP1;ratioP1;P1;durP2;ratioP2;P2;SDS_P1;SDS_P2;PMS_P1;PMS_P2;Temp;Humidity;BMP_temperature;BMP_pressure;BME280_temperature;BME280_humidity;BME280_pressure;Samples;Min_cycle;Max_cycle;Signal;HPM_P1;HPM_P2
2023/02/06 00:01:49;;;;;;;47.53;10.85;;;9.60;99.90;;;9.82;77.88;104279.25;5093208;28;20036;-73
2023/02/06 00:04:20;;;;;;;50.70;11.35;;;9.60;99.90;;;9.67;78.03;104259.94;5092956;28;20047;-73
2023/02/06 00:06:48;;;;;;;54.95;12.10;;;9.60;99.90;;;9.86;78.04;104281.25;5092952;28;20093;-73
2023/02/06 00:09:16;;;;;;;49.72;10.82;;;9.60;99.90;;;9.86;77.88;104288.25;5096860;28;20036;-73
2023/02/06 00:11:45;;;;;;;47.55;10.80;;;9.60;99.90;;;9.77;78.70;104278.13;5078988;28;20048;-74
2023/02/06 00:14:13;;;;;;;47.65;10.50;;;9.60;99.90;;;9.74;78.66;104270.00;5096829;28;20498;-73
2023/02/06 00:16:42;;;;;;;49.03;11.48;;;9.60;99.90;;;9.91;78.35;104281.50;5096799;28;20042;-73
2023/02/06 00:19:10;;;;;;;52.80;12.43;;;9.60;99.90;;;9.83;78.57;104278.41;5096975;28;20101;-73
2023/02/06 00:21:40;;;;;;;43.72;11.00;;;9.60;99.90;;;9.77;78.65;104272.81;5078459;28;20539;-73
2023/02/06 00:24:08;;;;;;;48.45;11.68;;;9.60;99.90;;;9.83;78.72;104265.19;5096926;28;20052;-73
2023/02/06 00:26:36;;;;;;;52.65;10.93;;;9.60;99.90;;;9.86;78.50;104278.59;5096843;28;20627;-73
2023/02/06 00:29:05;;;;;;;41.00;9.38;;;9.60;99.90;;;9.93;78.38;104264.84;5096761;28;20098;-73
2023/02/06 00:31:33;;;;;;;50.28;10.55;;;9.70;99.90;;;9.87;78.24;104256.59;5096738;28;20154;-73
2023/02/06 00:34:02;;;;;;;49.40;10.70;;;9.60;99.90;;;9.71;78.63;104224.91;5096713;28;20047;-73
2023/02/06 00:36:32;;;;;;;42.53;10.13;;;9.70;99.90;;;9.91;78.36;104266.50;5078414;28;20043;-73
2023/02/06 00:39:02;;;;;;;45.63;10.57;;;9.70;99.90;;;9.87;78.52;104271.59;5078345;28;20054;-73
2023/02/06 00:41:30;;;;;;;53.08;11.40;;;9.60;99.90;;;9.18;79.14;104155.06;5096899;28;20036;-73
2023/02/06 00:43:59;;;;;;;46.85;9.95;;;9.60;99.90;;;9.83;79.09;104273.13;5096530;28;20067;-73
2023/02/06 00:46:27;;;;;;;53.20;10.80;;;9.60;99.90;;;9.86;79.22;104275.94;5096376;28;20493;-74
2023/02/06 00:48:56;;;;;;;50.70;10.38;;;9.60;99.90;;;9.83;79.32;104267.84;5096199;28;20397;-73
2023/02/06 00:51:24;;;;;;;50.10;9.93;;;9.60;99.90;;;9.65;79.68;104245.72;5096080;28;20611;-73
2023/02/06 00:53:52;;;;;;;47.35;10.20;;;9.50;99.90;;;9.85;79.54;104271.47;5078145;28;20578;-75
2023/02/06 00:56:22;;;;;;;47.40;9.93;;;9.60;99.90;;;9.72;79.74;104253.16;5078176;28;20094;-73
2023/02/06 00:58:51;;;;;;;46.92;9.80;;;9.60;99.90;;;9.90;79.53;104264.72;5077741;28;20068;-74
2023/02/06 01:01:19;;;;;;;46.08;10.63;;;9.60;99.90;;;9.86;79.71;104260.09;5077984;28;20500;-73
2023/02/06 01:03:48;;;;;;;42.55;9.70;;;9.60;99.90;;;9.84;79.91;104255.53;5095822;28;20562;-68
2023/02/06 01:06:17;;;;;;;48.03;9.95;;;9.60;99.90;;;9.86;79.94;104262.72;5095587;28;20040;-65
2023/02/06 01:08:46;;;;;;;48.80;10.48;;;9.60;99.90;;;9.88;79.98;104266.38;5077723;28;20044;-64
2023/02/06 01:11:17;;;;;;;45.35;9.98;;;9.60;99.90;;;9.79;79.99;104260.56;5077650;28;20040;-65
2023/02/06 01:13:47;;;;;;;43.75;10.60;;;9.60;99.90;;;9.81;80.05;104264.19;5095947;28;20046;-65
2023/02/06 01:16:20;;;;;;;42.15;10.07;;;9.60;99.90;;;9.84;80.15;104258.19;5095667;28;20555;-65
2023/02/06 01:18:49;;;;;;;46.05;10.63;;;9.60;99.90;;;9.82;80.24;104262.47;5095076;28;20044;-65
2023/02/06 01:21:20;;;;;;;49.25;10.43;;;9.50;99.90;;;9.82;80.68;104259.84;5095357;28;20394;-65
2023/02/06 01:23:51;;;;;;;44.72;10.73;;;9.60;99.90;;;9.84;80.30;104259.09;5095821;28;20426;-65
2023/02/06 01:26:23;;;;;;;45.25;10.15;;;9.60;99.90;;;9.87;80.41;104256.59;5095475;28;20048;-65
2023/02/06 01:28:54;;;;;;;45.50;10.27;;;9.60;99.90;;;9.86;80.20;104254.78;5095470;28;20444;-65
2023/02/06 01:31:25;;;;;;;37.97;10.25;;;9.60;99.90;;;9.86;80.32;104260.09;5095275;28;20093;-65
2023/02/06 01:33:56;;;;;;;50.65;11.73;;;9.60;99.90;;;9.80;80.56;104261.47;5077459;28;20048;-65
2023/02/06 01:36:25;;;;;;;;;;;9.50;99.90;;;9.89;80.20;104276.09;5077862;28;20063;-64
2023/02/06 01:38:53;;;;;;;46.00;11.23;;;9.70;99.90;;;9.87;80.16;104259.25;5095197;28;20306;-65
2023/02/06 01:41:24;;;;;;;50.75;10.45;;;9.70;99.90;;;9.88;80.34;104255.78;5077579;28;20485;-65
2023/02/06 01:44:15;;;;;;;49.20;11.23;;;9.60;99.90;;;9.85;79.99;104262.66;5095319;28;20044;-65
2023/02/06 01:46:46;;;;;;;40.67;9.35;;;9.60;99.90;;;9.84;79.89;104269.66;5095367;28;20135;-65
2023/02/06 01:49:20;;;;;;;39.35;9.50;;;9.60;99.90;;;9.83;80.25;104266.97;5077099;28;20040;-63
2023/02/06 01:51:49;;;;;;;45.83;11.00;;;9.60;99.90;;;9.89;80.08;104265.53;5076988;28;20134;-65
2023/02/06 01:54:18;;;;;;;38.60;9.53;;;9.60;99.90;;;9.88;80.16;104262.81;5094908;28;20043;-65
2023/02/06 01:56:54;;;;;;;47.00;9.85;;;9.60;99.90;;;9.76;80.33;104260.41;5094869;28;20086;-65
2023/02/06 01:59:25;;;;;;;42.53;9.55;;;9.50;99.90;;;9.89;79.92;104257.59;5076917;28;20101;-65
2023/02/06 02:01:54;;;;;;;43.30;9.55;;;9.60;99.90;;;9.81;79.99;104248.34;5095021;28;20048;-65
2023/02/06 02:04:26;;;;;;;46.75;9.93;;;9.50;99.90;;;9.81;80.05;104248.34;5094654;28;20062;-65
2023/02/06 02:07:07;;;;;;;33.13;8.68;;;9.60;99.90;;;9.82;80.08;104241.31;5095201;28;20082;-65
2023/02/06 02:09:35;;;;;;;43.97;9.50;;;9.60;99.90;;;9.79;80.11;104239.41;5094898;28;20095;-66
2023/02/06 02:12:04;;;;;;;41.63;10.10;;;9.50;99.90;;;9.76;79.90;104244.56;5094547;28;20047;-65
2023/02/06 02:14:35;;;;;;;36.92;8.73;;;9.50;99.90;;;9.78;79.88;104247.28;5076603;28;20155;-65
2023/02/06 02:17:16;;;;;;;;;;;9.50;99.90;;;9.76;80.00;104248.94;5077023;28;20086;-65
2023/02/06 02:20:40;;;;;;;40.30;8.77;;;9.60;99.90;;;9.79;79.84;104239.41;5076473;28;20014;-65
2023/02/06 02:23:22;;;;;;;43.13;10.65;;;9.50;99.90;;;9.85;79.49;104241.50;5094175;28;20052;-65
2023/02/06 02:26:39;;;;;;;46.20;10.23;;;9.60;99.90;;;9.83;79.16;104220.25;5094298;28;20436;-65
2023/02/06 02:29:56;;;;;;;43.53;9.63;;;9.60;99.90;;;9.77;79.44;104225.25;5024780;28;20051;-64
2023/02/06 02:33:31;;;;;;;37.95;9.85;;;9.60;99.90;;;9.79;79.46;104217.38;5094289;28;20039;-64
2023/02/06 02:36:08;;;;;;;45.15;9.27;;;9.50;99.90;;;9.78;79.15;104226.13;5058224;28;20052;-64
2023/02/06 02:38:51;;;;;;;43.50;9.40;;;9.60;99.90;;;9.79;79.26;104227.97;5076007;28;20553;-65
2023/02/06 02:41:28;;;;;;;38.65;8.75;;;9.50;99.90;;;9.66;79.56;104210.53;5076059;28;20048;-64
2023/02/06 02:44:05;;;;;;;39.15;9.25;;;9.50;99.90;;;9.70;79.41;104216.88;5076329;28;20086;-65
2023/02/06 02:46:38;;;;;;;47.75;9.55;;;9.40;99.90;;;9.72;79.26;104210.84;5075992;28;20143;-65
2023/02/06 02:49:12;;;;;;;41.53;9.85;;;9.50;99.90;;;9.69;79.35;104204.50;5093828;28;20072;-65
2023/02/06 02:51:42;;;;;;;39.60;8.93;;;9.50;99.90;;;9.66;79.31;104199.94;5075824;28;20066;-65
2023/02/06 02:54:11;;;;;;;44.47;9.98;;;9.40;99.90;;;9.67;79.38;104214.09;5093746;28;20549;-65
2023/02/06 02:56:40;;;;;;;52.85;10.70;;;9.40;99.90;;;9.53;79.42;104186.00;5075703;28;20501;-65
2023/02/06 02:59:15;;;;;;;47.83;9.63;;;9.40;99.90;;;9.66;79.22;104210.53;5093876;28;20074;-65
2023/02/06 03:01:50;;;;;;;33.58;8.80;;;9.40;99.90;;;9.66;79.38;104210.53;5075621;28;20044;-65
2023/02/06 03:04:23;;;;;;;44.92;10.00;;;9.40;99.90;;;9.64;79.23;104206.00;5075641;28;20485;-65
2023/02/06 03:07:17;;;;;;;39.05;9.30;;;9.40;99.90;;;9.59;79.64;104221.63;5075635;28;20048;-66
2023/02/06 03:09:56;;;;;;;42.05;9.27;;;9.30;99.90;;;9.57;79.89;104217.06;5075556;28;20040;-65
2023/02/06 03:12:35;;;;;;;40.13;9.05;;;9.30;99.90;;;9.00;79.68;104111.84;5093643;28;20044;-65
2023/02/06 03:15:10;;;;;;;42.15;9.48;;;9.30;99.90;;;9.48;79.89;104220.13;5075625;28;20044;-65
2023/02/06 03:17:42;;;;;;;39.58;9.73;;;9.20;99.90;;;9.44;79.73;104218.16;5093701;28;20036;-64
2023/02/06 03:20:12;;;;;;;46.15;10.20;;;9.20;99.90;;;9.46;79.88;104220.88;5093363;28;20122;-65
2023/02/06 03:22:44;;;;;;;37.67;9.23;;;9.20;99.90;;;9.46;79.49;104221.78;5093603;28;20091;-65
2023/02/06 03:25:17;;;;;;;45.50;9.35;;;9.20;99.90;;;9.45;79.63;104222.59;5093328;28;20047;-65
2023/02/06 03:27:46;;;;;;;44.45;10.10;;;9.20;99.90;;;9.46;79.92;104221.78;5093271;28;20044;-65
2023/02/06 03:30:18;;;;;;;40.42;9.15;;;9.10;99.90;;;9.43;80.14;104231.25;5093449;28;20044;-64
2023/02/06 03:32:50;;;;;;;31.55;8.43;;;9.20;99.90;;;9.52;80.19;104232.69;5093103;28;20164;-65
2023/02/06 03:35:24;;;;;;;32.80;8.90;;;9.20;99.90;;;9.46;79.90;104234.09;5093166;28;20097;-65
2023/02/06 03:37:54;;;;;;;37.47;9.13;;;9.20;99.90;;;9.35;80.34;104229.97;5075265;28;20056;-65
2023/02/06 03:40:23;;;;;;;36.85;8.52;;;9.10;99.90;;;9.33;80.05;104235.13;5093310;28;20127;-65
2023/02/06 03:43:01;;;;;;;39.97;8.65;;;9.00;99.90;;;9.27;80.33;104226.88;5092523;28;20127;-65
2023/02/06 03:45:35;;;;;;;35.42;8.35;;;9.00;99.90;;;9.20;80.98;104229.09;5093092;28;20040;-64
2023/02/06 03:48:11;;;;;;;35.30;9.18;;;8.90;99.90;;;8.94;80.96;104220.63;5093382;28;20052;-65
2023/02/06 03:50:42;;;;;;;33.72;8.30;;;8.80;99.90;;;9.07;81.15;104231.09;5092920;28;20044;-65
2023/02/06 03:53:14;;;;;;;34.53;7.93;;;8.80;99.90;;;9.15;81.35;104234.16;5093069;28;20052;-64
2023/02/06 03:55:45;;;;;;;38.85;8.90;;;8.80;99.90;;;9.06;81.39;104242.44;5093269;28;20047;-64
2023/02/06 03:58:14;;;;;;;43.25;9.32;;;8.80;99.90;;;9.05;81.75;104222.16;5093027;28;20046;-64
2023/02/06 04:00:44;;;;;;;29.33;8.30;;;8.80;99.90;;;9.03;81.49;104218.53;5092900;28;20048;-65
2023/02/06 04:03:14;;;;;;;40.92;8.73;;;8.80;99.90;;;9.01;81.81;104224.53;5092988;28;20040;-64
2023/02/06 04:05:42;;;;;;;37.97;9.10;;;8.80;99.90;;;8.91;82.22;104222.19;5093078;28;20067;-65
2023/02/06 04:08:12;;;;;;;37.45;9.05;;;8.70;99.90;;;8.91;81.79;104216.94;5092752;28;20722;-66
2023/02/06 04:10:40;;;;;;;42.07;9.13;;;8.60;99.90;;;8.93;81.84;104217.91;5093166;28;20500;-65
2023/02/06 04:13:09;;;;;;;35.17;8.23;;;8.70;99.90;;;8.93;81.41;104215.28;5092753;28;20102;-64
2023/02/06 04:15:37;;;;;;;33.42;8.32;;;8.60;99.90;;;8.82;81.99;104219.97;5092720;28;20036;-64
2023/02/06 04:18:06;;;;;;;31.10;7.68;;;8.60;99.90;;;8.75;81.75;104211.63;5074846;28;20142;-64
2023/02/06 04:20:39;;;;;;;34.15;8.65;;;8.50;99.90;;;8.77;82.11;104213.50;5092692;28;20048;-65
2023/02/06 04:23:08;;;;;;;34.72;7.80;;;8.50;99.90;;;8.68;82.43;104201.53;5092608;28;20052;-66
2023/02/06 04:25:38;;;;;;;33.03;8.50;;;8.50;99.90;;;8.75;82.22;104207.22;5092646;28;20040;-65
2023/02/06 04:28:06;;;;;;;31.25;9.05;;;8.50;99.90;;;8.67;82.01;104212.91;5092851;28;20048;-65
2023/02/06 04:30:35;;;;;;;31.25;8.43;;;8.40;99.90;;;8.64;82.08;104215.38;5092582;28;20048;-65
2023/02/06 04:33:04;;;;;;;33.53;8.73;;;8.30;99.90;;;8.51;82.41;104197.94;5092563;28;20040;-65
2023/02/06 04:35:32;;;;;;;42.05;9.52;;;8.30;99.90;;;8.60;82.27;104221.28;5074753;28;20143;-65
2023/02/06 04:38:00;;;;;;;44.15;9.48;;;8.30;99.90;;;8.63;82.29;104229.41;5092493;28;20555;-65
2023/02/06 04:40:29;;;;;;;34.65;9.23;;;8.40;99.90;;;8.61;82.68;104221.41;5093017;28;20054;-64
2023/02/06 04:42:59;;;;;;;41.47;8.73;;;8.30;99.90;;;8.53;83.23;104219.13;5074635;28;20143;-65
2023/02/06 04:45:27;;;;;;;40.97;9.27;;;8.20;99.90;;;8.59;83.36;104225.69;5093046;28;20135;-65
2023/02/06 04:47:55;;;;;;;42.72;9.57;;;8.20;99.90;;;8.62;83.59;104231.13;5092416;28;20044;-64
2023/02/06 04:50:30;;;;;;;;;;;8.30;99.90;;;8.48;84.48;104229.41;5093204;28;20117;-65
2023/02/06 04:52:58;;;;;;;38.13;8.55;;;8.20;99.90;;;8.54;84.32;104235.03;5092392;28;19952;-65
2023/02/06 04:55:27;;;;;;;43.10;8.90;;;8.20;99.90;;;8.60;84.11;104235.41;5094317;28;20055;-65
2023/02/06 04:57:55;;;;;;;45.67;9.60;;;8.30;99.90;;;8.64;83.94;104236.47;5095976;28;20079;-65
2023/02/06 05:00:25;;;;;;;44.42;8.43;;;8.30;99.90;;;8.65;84.07;104238.31;5096491;28;20051;-65
2023/02/06 05:02:53;;;;;;;34.07;8.30;;;8.30;99.90;;;8.65;83.88;104230.41;5095895;28;20097;-64
2023/02/06 05:05:21;;;;;;;35.60;9.00;;;8.30;99.90;;;8.43;84.16;104211.50;5095769;28;20494;-64
2023/02/06 05:07:50;;;;;;;33.15;8.73;;;8.20;99.90;;;8.48;84.00;104217.97;5095768;28;20052;-65
2023/02/06 05:10:18;;;;;;;38.05;9.10;;;8.20;99.90;;;8.58;84.57;104228.19;5095719;28;20044;-65
2023/02/06 05:12:49;;;;;;;37.67;9.65;;;8.30;99.90;;;8.59;84.22;104227.41;5096187;28;20078;-65
2023/02/06 05:15:18;;;;;;;42.13;9.35;;;8.30;99.90;;;8.61;83.81;104225.75;5095695;28;20538;-64
2023/02/06 05:17:47;;;;;;;35.95;9.02;;;8.30;99.90;;;8.65;84.20;104220.72;5095641;28;20117;-65
2023/02/06 05:20:16;;;;;;;35.53;8.93;;;8.40;99.90;;;8.61;83.78;104217.84;5095523;28;20498;-65
2023/02/06 05:22:44;;;;;;;36.90;9.20;;;8.30;99.90;;;8.62;83.62;104214.38;5095432;28;20376;-65
2023/02/06 05:25:13;;;;;;;36.38;8.80;;;8.30;99.90;;;8.49;83.90;104210.13;5095699;28;20040;-63
2023/02/06 05:27:41;;;;;;;37.25;8.60;;;8.20;99.90;;;8.50;84.49;104205.75;5095716;28;20069;-65
2023/02/06 05:30:12;;;;;;;37.13;9.13;;;8.20;99.90;;;8.36;84.57;104204.06;5095368;28;20044;-65
2023/02/06 05:32:41;;;;;;;41.90;8.88;;;8.10;99.90;;;8.50;84.42;104200.47;5078196;28;20047;-65
2023/02/06 05:35:11;;;;;;;33.67;8.48;;;8.20;99.90;;;8.47;84.28;104203.84;5095338;28;20042;-65
2023/02/06 05:37:39;;;;;;;43.25;9.07;;;8.20;99.90;;;8.38;84.38;104194.50;5077385;28;20150;-65
2023/02/06 05:40:09;;;;;;;37.80;8.98;;;8.10;99.90;;;8.37;84.69;104193.59;5095100;28;20374;-65
2023/02/06 05:42:38;;;;;;;37.30;9.23;;;8.10;99.90;;;8.38;84.84;104187.47;5095736;28;20040;-65
2023/02/06 05:45:08;;;;;;;34.70;8.82;;;8.10;99.90;;;8.58;84.31;104197.47;5095048;28;20079;-65
2023/02/06 05:47:36;;;;;;;36.78;9.13;;;8.20;99.90;;;8.41;84.63;104190.31;5095115;28;20491;-64
2023/02/06 05:50:06;;;;;;;37.60;9.00;;;8.20;99.90;;;8.45;84.06;104202.84;5094988;28;20059;-64
2023/02/06 05:52:35;;;;;;;33.85;9.25;;;8.20;99.90;;;8.41;84.39;104205.22;5094916;28;20040;-65
2023/02/06 05:55:04;;;;;;;31.57;8.60;;;8.20;99.90;;;8.55;84.22;104209.56;5095171;28;20074;-65
2023/02/06 05:57:33;;;;;;;39.08;9.63;;;8.30;99.90;;;8.57;83.73;104214.13;5076959;28;20135;-65
2023/02/06 06:00:02;;;;;;;36.28;9.63;;;8.30;99.90;;;8.63;83.44;104210.94;5076977;28;20048;-64
2023/02/06 06:02:39;;;;;;;30.73;8.73;;;8.40;99.90;;;8.59;83.88;104201.00;5094745;28;20048;-65
2023/02/06 06:05:08;;;;;;;33.78;8.95;;;8.40;99.90;;;8.62;83.88;104204.72;5094310;28;20082;-64
2023/02/06 06:07:38;;;;;;;36.95;8.82;;;8.30;99.90;;;8.61;83.45;104204.66;5094699;28;20155;-66
2023/02/06 06:10:07;;;;;;;37.63;8.53;;;8.30;99.90;;;8.61;83.51;104205.56;5094630;28;20079;-66
2023/02/06 06:12:36;;;;;;;43.53;9.60;;;8.40;99.90;;;8.66;83.87;104211.09;5094670;28;20047;-66
2023/02/06 06:15:06;;;;;;;32.50;8.85;;;8.40;99.90;;;8.69;83.97;104208.63;5095021;28;20047;-65
2023/02/06 06:17:34;;;;;;;32.03;8.50;;;8.40;99.90;;;8.72;83.53;104206.16;5094753;28;20040;-66
2023/02/06 06:20:02;;;;;;;32.42;8.65;;;8.40;99.90;;;8.69;83.11;104198.09;5076521;28;20500;-65
2023/02/06 06:22:31;;;;;;;34.58;9.43;;;8.50;99.90;;;8.79;83.41;104203.94;5094638;28;20044;-66
2023/02/06 06:25:00;;;;;;;38.22;8.68;;;8.50;99.90;;;8.66;83.15;104190.88;5074102;28;20051;-66
2023/02/06 06:27:29;;;;;;;39.50;8.70;;;8.50;99.90;;;8.87;83.49;104209.66;5074512;28;20410;-65
2023/02/06 06:29:57;;;;;;;38.33;9.85;;;8.60;99.90;;;8.92;83.10;104210.84;5073832;28;20271;-66
2023/02/06 06:32:26;;;;;;;35.28;8.88;;;8.60;99.90;;;8.79;83.35;104182.84;5056078;28;20402;-66
2023/02/06 06:34:54;;;;;;;34.33;9.18;;;8.60;99.90;;;8.85;82.75;104184.91;5074109;28;20045;-65
2023/02/06 06:37:22;;;;;;;38.35;8.90;;;8.70;99.90;;;8.98;83.33;104203.25;5072758;28;20501;-66
2023/02/06 06:39:51;;;;;;;33.08;9.05;;;8.70;99.90;;;8.93;83.00;104205.63;5074002;28;20118;-65
2023/02/06 06:42:20;;;;;;;40.22;9.63;;;8.70;99.90;;;8.90;83.08;104199.28;5073656;28;20040;-66
2023/02/06 06:44:48;;;;;;;34.70;8.38;;;8.60;99.90;;;8.85;83.20;104196.38;5074161;28;20041;-66
2023/02/06 06:47:17;;;;;;;40.45;9.18;;;8.60;99.90;;;8.86;83.01;104208.78;5073765;28;20052;-66
2023/02/06 06:49:45;;;;;;;38.70;8.88;;;8.60;99.90;;;8.90;83.08;104217.75;5055854;28;20466;-65
2023/02/06 06:52:13;;;;;;;44.38;9.05;;;8.60;99.90;;;8.91;83.08;104212.56;5073700;28;20094;-66
2023/02/06 06:54:52;;;;;;;38.60;8.40;;;8.60;99.90;;;8.97;82.93;104206.72;5073488;28;20395;-66
2023/02/06 06:57:22;;;;;;;39.05;9.25;;;8.70;99.90;;;9.00;82.84;104212.19;5073338;28;20044;-65
2023/02/06 06:59:52;;;;;;;36.67;8.75;;;8.80;99.90;;;8.88;82.69;104191.25;5073665;28;20044;-64
2023/02/06 07:02:20;;;;;;;35.03;8.88;;;8.70;99.90;;;8.92;82.64;104210.84;5073315;28;20036;-65
2023/02/06 07:04:48;;;;;;;32.80;7.93;;;8.70;99.90;;;8.80;82.89;104208.41;5072260;28;20483;-65
2023/02/06 07:07:17;;;;;;;40.08;8.23;;;8.60;99.90;;;8.78;83.22;104204.78;5073479;28;20415;-66
2023/02/06 07:09:45;;;;;;;33.63;8.27;;;8.50;99.90;;;8.67;83.23;104208.53;5073337;28;20428;-67
2023/02/06 07:12:14;;;;;;;26.73;7.75;;;8.50;99.90;;;8.70;82.74;104210.44;5073244;28;20052;-66
2023/02/06 07:14:44;;;;;;;29.15;8.40;;;8.40;99.90;;;8.71;83.05;104201.72;5073052;28;20055;-67
2023/02/06 07:17:12;;;;;;;32.05;8.05;;;8.40;99.90;;;8.80;83.26;104218.06;5072414;28;20481;-66
2023/02/06 07:19:41;;;;;;;36.30;9.18;;;8.50;99.90;;;8.78;82.77;104209.16;5055460;28;20557;-67
2023/02/06 07:22:09;;;;;;;28.20;8.07;;;8.50;99.90;;;8.66;82.72;104204.09;5073096;28;20040;-67
2023/02/06 07:24:37;;;;;;;34.45;8.18;;;8.50;99.90;;;8.46;82.77;104206.41;5090607;28;20062;-69
2023/02/06 07:27:06;;;;;;;31.50;8.85;;;8.30;99.90;;;8.38;82.44;104198.03;5093268;28;20473;-66
2023/02/06 07:29:35;;;;;;;36.83;9.13;;;8.20;99.90;;;8.45;81.93;104187.03;5093504;28;20411;-71
2023/02/06 07:32:05;;;;;;;28.25;7.90;;;8.20;99.90;;;8.52;82.81;104186.53;5093179;28;20038;-66
2023/02/06 07:34:34;;;;;;;;;;;8.20;99.90;;;8.34;82.20;104176.69;5075406;28;20574;-67
2023/02/06 07:37:02;;;;;;;33.45;8.68;;;8.20;99.90;;;8.27;82.29;104200.88;5093114;28;19957;-66
2023/02/06 07:39:30;;;;;;;17.55;6.95;;;8.10;99.90;;;8.19;82.41;104197.75;5093039;28;20442;-67
2023/02/06 07:41:59;;;;;;;24.23;8.75;;;8.00;99.90;;;8.06;82.72;104198.78;5092896;28;20406;-64
2023/02/06 07:44:33;;;;;;;35.28;8.95;;;7.90;99.90;;;8.08;83.24;104194.50;5075022;28;20050;-64
2023/02/06 07:47:02;;;;;;;35.60;9.10;;;7.90;99.90;;;8.17;83.36;104189.75;5093167;28;20457;-64
2023/02/06 07:49:31;;;;;;;34.08;9.30;;;7.90;99.90;;;8.14;83.79;104192.22;5075068;28;20052;-63
2023/02/06 07:52:00;;;;;;;42.43;9.63;;;7.90;99.90;;;8.00;84.18;104179.94;5093274;28;20071;-63
2023/02/06 07:54:28;;;;;;;27.48;8.75;;;7.80;99.90;;;7.94;84.40;104187.50;5092821;28;20044;-64
2023/02/06 07:56:57;;;;;;;33.17;9.27;;;7.70;99.90;;;8.00;85.15;104184.31;5092895;28;20041;-65
2023/02/06 07:59:25;;;;;;;38.65;8.27;;;7.70;99.90;;;8.06;85.02;104182.94;5092834;28;20105;-65
2023/02/06 08:01:53;;;;;;;39.47;9.73;;;7.80;99.90;;;8.06;84.96;104182.94;5092783;28;20051;-65
2023/02/06 08:04:22;;;;;;;39.65;9.68;;;7.90;99.90;;;8.11;85.09;104181.47;5092836;28;20044;-64
2023/02/06 08:06:52;;;;;;;35.90;9.60;;;7.90;99.90;;;8.13;84.72;104186.84;5092716;28;20101;-64
2023/02/06 08:09:20;;;;;;;33.95;9.32;;;8.00;99.90;;;8.13;84.64;104165.75;5092995;28;20048;-64
2023/02/06 08:11:48;;;;;;;43.75;9.77;;;8.00;99.90;;;8.29;84.66;104172.84;5093314;28;20113;-65
2023/02/06 08:14:17;;;;;;;38.22;9.13;;;8.10;99.90;;;8.33;84.36;104166.94;5092973;28;20534;-67
2023/02/06 08:16:45;;;;;;;36.97;9.95;;;8.10;99.90;;;8.42;84.57;104163.09;5092707;28;20044;-67
2023/02/06 08:19:14;;;;;;;44.83;10.05;;;8.20;99.90;;;8.53;84.00;104155.81;5092761;28;20063;-66
2023/02/06 08:21:42;;;;;;;30.35;9.35;;;8.30;99.90;;;8.54;84.12;104149.69;5074853;28;20066;-64
2023/02/06 08:24:13;;;;;;;33.80;8.70;;;8.30;99.90;;;8.48;84.09;104154.66;5092866;28;20059;-66
2023/02/06 08:26:42;;;;;;;;;;;8.20;99.90;;;8.51;83.65;104142.53;5093147;28;20405;-67
2023/02/06 08:29:13;;;;;;;36.70;9.40;;;8.40;99.90;;;8.54;83.59;104136.50;5076429;28;19920;-63
2023/02/06 08:31:42;;;;;;;;;;;8.40;99.90;;;8.64;83.46;104152.03;5079044;28;20063;-63
2023/02/06 08:34:13;;;;;;;35.47;8.60;;;8.50;99.90;;;8.63;83.26;104142.31;5096310;28;20038;-62
2023/02/06 08:36:43;;;;;;;28.05;8.15;;;8.50;99.90;;;8.53;83.39;104132.06;5096388;28;20055;-63
2023/02/06 08:39:14;;;;;;;29.42;8.77;;;8.40;99.90;;;8.56;84.07;104138.41;5096344;28;20420;-63
2023/02/06 08:41:43;;;;;;;28.25;8.65;;;8.30;99.90;;;8.60;84.61;104131.56;5096601;28;20464;-67
2023/02/06 08:44:14;;;;;;;35.85;9.23;;;8.30;99.90;;;8.56;85.07;104137.50;5096287;28;20051;-68
2023/02/06 08:46:46;;;;;;;32.17;8.95;;;8.30;99.90;;;8.70;85.33;104116.34;5096551;28;20126;-68
2023/02/06 08:49:19;;;;;;;32.20;9.63;;;8.40;99.90;;;8.69;84.91;104121.53;5096598;28;20063;-67
2023/02/06 08:51:49;;;;;;;27.48;9.35;;;8.40;99.90;;;8.91;86.31;104120.16;5096257;28;20074;-63
2023/02/06 08:54:22;;;;;;;37.95;10.65;;;8.60;99.90;;;8.92;87.36;104033.94;5096651;28;20036;-68
2023/02/06 08:56:55;;;;;;;41.55;10.80;;;9.00;99.90;;;9.78;87.26;104070.13;5096618;28;20040;-62
2023/02/06 08:59:23;;;;;;;30.95;10.75;;;9.60;99.90;;;10.61;85.24;104100.72;5096045;28;20463;-64
2023/02/06 09:01:52;;;;;;;32.10;10.07;;;10.20;99.90;;;10.93;82.67;104097.84;5096010;28;20040;-66
2023/02/06 09:04:20;;;;;;;36.80;9.80;;;10.70;99.90;;;11.37;80.29;104098.09;5096449;28;20189;-62
2023/02/06 09:06:50;;;;;;;33.67;10.07;;;11.10;99.90;;;11.62;77.86;104100.06;5096096;28;20044;-62
2023/02/06 09:09:20;;;;;;;33.95;9.98;;;11.40;99.90;;;11.79;76.18;104096.41;5096096;28;20097;-63
2023/02/06 09:11:49;;;;;;;37.10;10.40;;;11.60;99.90;;;11.76;75.10;104099.88;5077923;28;20138;-62
2023/02/06 09:14:19;;;;;;;38.15;9.95;;;11.60;99.90;;;11.61;75.70;104104.44;5095663;28;20252;-62
2023/02/06 09:16:47;;;;;;;39.95;10.90;;;11.50;99.90;;;12.01;76.74;104109.75;5095772;28;20289;-64
2023/02/06 09:19:15;;;;;;;33.42;10.95;;;11.70;99.90;;;12.63;76.15;104099.91;5095679;28;20036;-64
2023/02/06 09:21:44;;;;;;;37.55;11.13;;;12.30;99.90;;;12.99;73.20;104100.41;5095868;28;20437;-63
2023/02/06 09:24:12;;;;;;;39.00;11.02;;;12.70;99.90;;;13.02;72.15;104102.28;5095413;28;20412;-63
2023/02/06 09:26:43;;;;;;;37.63;10.48;;;12.80;99.90;;;12.98;71.30;104087.97;5095469;28;20074;-65
2023/02/06 09:29:28;;;;;;;34.10;10.00;;;12.90;99.90;;;13.20;71.17;104101.22;5095795;28;20119;-59
2023/02/06 09:31:57;;;;;;;38.17;9.90;;;13.00;99.90;;;13.72;70.83;104113.72;5095547;28;20047;-63
2023/02/06 09:34:27;;;;;;;50.55;10.85;;;13.40;99.90;;;14.15;68.58;104106.34;5095337;28;20131;-62
2023/02/06 09:36:56;;;;;;;35.30;9.38;;;13.80;99.90;;;14.43;68.07;104102.00;5095405;28;20036;-61
2023/02/06 09:39:25;;;;;;;39.25;10.15;;;14.10;99.90;;;14.67;66.74;104087.63;5095125;28;20044;-60
2023/02/06 09:41:59;;;;;;;30.77;9.00;;;14.50;99.90;;;15.28;65.57;104097.44;5076494;28;20094;-61
2023/02/06 09:44:33;;;;;;;39.90;9.63;;;14.90;99.90;;;15.30;63.49;104090.38;5095373;28;20158;-63
2023/02/06 09:47:13;;;;;;;35.15;9.20;;;15.10;99.90;;;15.63;63.39;104101.09;5095071;28;20044;-64
2023/02/06 09:49:46;;;;;;;38.10;8.93;;;15.30;99.90;;;15.56;62.28;104101.81;5095322;28;20428;-68
2023/02/06 09:52:39;;;;;;;33.85;9.63;;;15.30;99.90;;;15.89;61.90;104100.00;5095150;28;20044;-60
2023/02/06 09:55:16;;;;;;;31.25;8.25;;;15.60;99.90;;;16.01;61.02;104102.97;5094804;28;20461;-60
2023/02/06 09:57:51;;;;;;;28.88;8.63;;;15.80;99.90;;;16.31;58.51;104102.84;5094919;28;20109;-60
2023/02/06 10:00:34;;;;;;;31.00;9.27;;;16.10;99.90;;;16.15;56.59;104112.25;5094894;28;20063;-60
2023/02/06 10:03:31;;;;;;;38.95;9.23;;;16.00;99.90;;;16.24;57.99;104119.56;5094867;28;20406;-60
2023/02/06 10:06:14;;;;;;;31.38;8.77;;;16.00;99.90;;;16.12;57.44;104120.16;5094563;28;20405;-60
2023/02/06 10:08:50;;;;;;;32.03;9.30;;;15.90;99.90;;;16.16;56.75;104137.19;5095013;28;20048;-60
2023/02/06 10:11:28;;;;;;;30.15;7.50;;;15.90;99.90;;;16.59;56.35;104117.78;5094754;28;20459;-60
2023/02/06 10:14:02;;;;;;;29.63;7.88;;;16.30;99.90;;;16.79;55.38;104128.03;5094572;28;20051;-61
2023/02/06 10:16:38;;;;;;;31.42;7.32;;;16.60;99.90;;;16.84;55.05;104125.47;5094816;28;20043;-61
2023/02/06 10:19:15;;;;;;;24.83;7.95;;;16.70;99.90;;;16.80;53.81;104129.84;5095006;28;20097;-61
2023/02/06 10:21:51;;;;;;;26.48;7.82;;;16.70;99.90;;;16.70;54.04;104124.28;5094643;28;20068;-61
2023/02/06 10:24:32;;;;;;;24.92;8.05;;;16.60;99.90;;;16.93;53.72;104126.59;5094109;28;20079;-62
2023/02/06 10:27:03;;;;;;;;;;;16.70;99.90;;;16.98;53.40;104130.25;5076822;28;20059;-62
2023/02/06 10:29:35;;;;;;;29.35;7.75;;;16.90;99.90;;;16.92;52.63;104137.22;5094837;28;19920;-63
2023/02/06 10:32:29;;;;;;;27.80;7.45;;;16.80;99.90;;;16.89;52.06;104135.41;5094463;28;20382;-66
2023/02/06 10:35:25;;;;;;;33.90;8.57;;;16.70;99.90;;;17.27;51.72;104144.22;5094289;28;20040;-65
2023/02/06 10:38:23;;;;;;;26.13;7.72;;;17.00;99.90;;;17.52;51.58;104141.19;5094142;28;20097;-66